Time;durP1;ratioP1;P1;durP2;ratioP2;P2;SDS_P1;SDS_P2;PMS_P1;PMS_P2;Temp;Humidity;BMP_temperature;BMP_pressure;BME280_temperature;BME280_humidity;BME280_pressure;Samples;Min_cycle;Max_cycle;Signal;HPM_P1;HPM_P2
2021/01/01 00:01:05;;;;;;;373.55;43.00;;;1.00;95.90;;;;;;5080473;28;20068;-56
2021/01/01 00:03:31;;;;;;;535.47;70.72;;;0.90;95.90;;;;;;5082032;28;20097;-56
2021/01/01 00:05:56;;;;;;;329.15;63.00;;;0.90;96.20;;;;;;5084158;28;20757;-56
2021/01/01 00:08:22;;;;;;;410.58;77.75;;;1.00;96.00;;;;;;5086597;28;20024;-56
2021/01/01 00:10:49;;;;;;;329.20;59.08;;;1.00;96.10;;;;;;5079006;28;20076;-56
2021/01/01 00:13:15;;;;;;;474.02;65.60;;;0.90;96.20;;;;;;5080327;28;20094;-56
2021/01/01 00:15:41;;;;;;;432.05;64.40;;;1.00;96.30;;;;;;5080561;28;20040;-56
2021/01/01 00:18:06;;;;;;;495.30;60.70;;;1.00;96.50;;;;;;5080065;28;20051;-56
2021/01/01 00:20:32;;;;;;;606.28;74.65;;;1.00;96.60;;;;;;5082848;28;20502;-56
2021/01/01 00:22:58;;;;;;;590.63;79.20;;;1.00;96.80;;;;;;5081620;28;20090;-56
2021/01/01 00:25:23;;;;;;;691.10;94.88;;;1.20;97.30;;;;;;5087281;28;20514;-56
2021/01/01 00:27:49;;;;;;;673.40;97.00;;;1.10;97.20;;;;;;5082258;28;20041;-56
2021/01/01 00:30:15;;;;;;;596.67;82.30;;;1.10;97.20;;;;;;5081387;28;20418;-56
2021/01/01 00:32:45;;;;;;;1310.72;528.70;;;1.20;97.20;;;;;;5080424;28;20056;-56
2021/01/01 00:35:11;;;;;;;699.40;137.90;;;1.20;97.30;;;;;;5086518;28;20040;-56
2021/01/01 00:37:38;;;;;;;667.65;81.55;;;1.20;97.30;;;;;;5088026;28;20059;-56
2021/01/01 00:40:07;;;;;;;507.15;66.70;;;1.10;97.30;;;;;;5082688;28;20036;-56
2021/01/01 00:42:37;;;;;;;525.33;69.45;;;1.20;97.30;;;;;;5081740;28;20098;-56
2021/01/01 00:45:04;;;;;;;523.05;69.80;;;1.10;97.30;;;;;;5085553;28;20033;-56
2021/01/01 00:47:30;;;;;;;474.10;65.10;;;1.10;97.30;;;;;;5084686;28;20072;-56
2021/01/01 00:49:56;;;;;;;411.30;60.50;;;1.20;97.30;;;;;;5082711;28;20661;-56
2021/01/01 00:52:21;;;;;;;504.77;72.80;;;1.10;97.30;;;;;;5087565;28;20434;-56
2021/01/01 00:54:47;;;;;;;389.05;73.65;;;1.10;97.20;;;;;;5086219;28;20078;-56
2021/01/01 00:57:12;;;;;;;436.70;83.18;;;1.10;97.20;;;;;;5086439;28;20120;-56
2021/01/01 00:59:38;;;;;;;347.85;59.25;;;1.10;97.20;;;;;;5085914;28;20028;-56
2021/01/01 01:02:04;;;;;;;265.23;53.20;;;1.00;97.10;;;;;;5080323;28;20084;-56
2021/01/01 01:04:30;;;;;;;265.17;54.45;;;1.10;97.10;;;;;;5083329;28;20475;-56
2021/01/01 01:06:55;;;;;;;194.00;47.40;;;1.10;97.10;;;;;;5083452;28;20127;-56
2021/01/01 01:09:21;;;;;;;289.00;48.13;;;1.10;97.10;;;;;;5083303;28;20474;-56
2021/01/01 01:11:47;;;;;;;120.57;38.05;;;1.10;97.10;;;;;;5082002;28;20028;-56
2021/01/01 01:14:12;;;;;;;358.48;57.28;;;1.10;97.00;;;;;;5081448;28;20036;-57
2021/01/01 01:16:39;;;;;;;319.08;51.97;;;1.00;97.00;;;;;;5081142;28;20109;-56
2021/01/01 01:19:05;;;;;;;265.75;51.33;;;1.00;96.80;;;;;;5081872;28;20028;-56
2021/01/01 01:21:30;;;;;;;374.50;52.45;;;1.00;96.80;;;;;;5078127;28;20418;-56
2021/01/01 01:23:56;;;;;;;231.50;48.90;;;1.00;96.80;;;;;;5080163;28;20032;-56
2021/01/01 01:26:23;;;;;;;373.75;44.13;;;1.00;96.80;;;;;;5085586;28;20032;-56
2021/01/01 01:28:49;;;;;;;314.38;47.20;;;0.90;96.80;;;;;;5086675;28;20062;-56
2021/01/01 01:31:16;;;;;;;327.08;50.00;;;1.00;96.80;;;;;;5075513;28;20507;-56
2021/01/01 01:33:43;;;;;;;219.45;44.65;;;1.00;96.70;;;;;;5080624;28;20054;-56
2021/01/01 01:36:09;;;;;;;323.77;56.25;;;0.90;96.70;;;;;;5085858;28;20388;-56
2021/01/01 01:38:35;;;;;;;270.13;52.78;;;0.90;96.70;;;;;;5082983;28;20097;-56
2021/01/01 01:41:01;;;;;;;143.13;40.63;;;0.90;96.70;;;;;;5082268;28;20090;-56
2021/01/01 01:43:27;;;;;;;260.15;43.55;;;0.90;96.60;;;;;;5081217;28;20039;-56
2021/01/01 01:45:54;;;;;;;148.90;39.80;;;0.90;96.60;;;;;;5082652;28;20032;-56
2021/01/01 01:48:26;;;;;;;219.60;41.97;;;0.90;96.60;;;;;;5081114;28;20036;-56
2021/01/01 01:50:52;;;;;;;172.48;41.97;;;0.90;96.60;;;;;;5080345;28;20032;-56
2021/01/01 01:53:19;;;;;;;102.45;39.20;;;0.80;96.50;;;;;;5080488;28;20035;-56
2021/01/01 01:55:45;;;;;;;113.80;37.05;;;0.90;96.60;;;;;;5083024;28;20051;-56
2021/01/01 01:58:11;;;;;;;106.32;37.25;;;0.80;96.50;;;;;;5085573;28;20389;-56
2021/01/01 02:00:53;;;;;;;123.13;39.88;;;0.90;96.50;;;;;;5079036;28;20046;-56
2021/01/01 02:03:19;;;;;;;128.75;41.25;;;0.80;96.50;;;;;;5081224;28;20032;-56
2021/01/01 02:05:45;;;;;;;90.82;39.55;;;0.80;96.50;;;;;;5080774;28;20102;-56
2021/01/01 02:08:12;;;;;;;97.95;41.83;;;0.80;96.40;;;;;;5084221;28;20549;-56
2021/01/01 02:10:38;;;;;;;93.68;40.42;;;0.80;96.40;;;;;;5082333;28;20082;-56
2021/01/01 02:13:04;;;;;;;68.25;38.00;;;0.80;96.40;;;;;;5084939;28;20060;-56
2021/01/01 02:15:30;;;;;;;67.07;37.13;;;0.90;96.40;;;;;;5085498;28;20037;-56
2021/01/01 02:17:56;;;;;;;64.25;36.85;;;0.80;96.30;;;;;;5084574;28;20071;-56
2021/01/01 02:20:23;;;;;;;69.57;36.08;;;0.80;96.20;;;;;;5088219;28;20058;-56
2021/01/01 02:22:49;;;;;;;64.38;36.45;;;0.80;96.20;;;;;;5081835;28;20107;-56
2021/01/01 02:25:14;;;;;;;63.85;34.92;;;0.80;96.10;;;;;;5084176;28;20107;-56
2021/01/01 02:27:40;;;;;;;80.25;37.70;;;0.80;96.10;;;;;;5076662;28;20048;-56
2021/01/01 02:30:07;;;;;;;71.57;36.75;;;0.70;96.30;;;;;;5083595;28;20032;-56
2021/01/01 02:32:33;;;;;;;74.18;38.60;;;0.80;96.10;;;;;;5078779;28;20482;-56
2021/01/01 02:35:00;;;;;;;91.63;39.88;;;0.90;96.10;;;;;;5075964;28;20041;-56
2021/01/01 02:37:26;;;;;;;208.00;47.97;;;0.80;96.10;;;;;;5079130;28;20948;-56
2021/01/01 02:39:52;;;;;;;142.40;41.72;;;0.70;96.10;;;;;;5077977;28;20036;-56
2021/01/01 02:42:17;;;;;;;165.82;42.80;;;0.70;96.10;;;;;;5082052;28;20045;-56
2021/01/01 02:44:43;;;;;;;208.77;46.08;;;0.70;96.00;;;;;;5078568;28;20101;-56
2021/01/01 02:47:09;;;;;;;101.07;38.72;;;0.70;95.90;;;;;;5084513;28;20032;-56
2021/01/01 02:49:35;;;;;;;111.65;39.60;;;0.70;95.90;;;;;;5083093;28;20075;-56
2021/01/01 02:52:02;;;;;;;149.48;41.08;;;0.60;95.80;;;;;;5080037;28;20044;-56
2021/01/01 02:54:28;;;;;;;159.15;44.10;;;0.60;95.80;;;;;;5077742;28;20486;-56
2021/01/01 02:56:54;;;;;;;112.70;41.25;;;0.70;95.90;;;;;;5081566;28;20036;-56
2021/01/01 02:59:20;;;;;;;142.85;40.97;;;0.60;95.80;;;;;;5078466;28;20405;-56
2021/01/01 03:01:46;;;;;;;73.28;36.70;;;0.70;95.90;;;;;;5078803;28;20090;-56
2021/01/01 03:04:12;;;;;;;54.15;35.50;;;0.60;95.80;;;;;;5075720;28;20048;-56
2021/01/01 03:06:37;;;;;;;46.85;32.75;;;0.60;95.80;;;;;;5081588;28;20034;-56
2021/01/01 03:09:06;;;;;;;69.28;37.03;;;0.60;95.80;;;;;;5079995;28;20072;-56
2021/01/01 03:11:32;;;;;;;78.78;38.20;;;0.70;95.90;;;;;;5080945;28;20036;-56
2021/01/01 03:13:58;;;;;;;93.45;38.55;;;0.80;95.90;;;;;;5081930;28;20039;-56
2021/01/01 03:16:24;;;;;;;76.47;36.63;;;0.70;95.90;;;;;;5079139;28;20521;-56
2021/01/01 03:18:50;;;;;;;89.53;39.38;;;0.70;96.00;;;;;;5079141;28;20035;-56
2021/01/01 03:21:22;;;;;;;102.97;38.15;;;0.70;95.90;;;;;;5078127;28;20032;-56
2021/01/01 03:23:48;;;;;;;100.55;41.25;;;0.70;95.90;;;;;;5078163;28;20044;-56
2021/01/01 03:26:14;;;;;;;105.28;43.92;;;0.70;95.90;;;;;;5084064;28;20392;-56
2021/01/01 03:28:40;;;;;;;81.90;38.42;;;0.70;95.90;;;;;;5079660;28;20061;-56
2021/01/01 03:31:07;;;;;;;80.45;41.85;;;0.80;95.90;;;;;;5081708;28;20043;-56
2021/01/01 03:33:33;;;;;;;76.40;41.72;;;0.80;95.90;;;;;;5075206;28;20047;-56
2021/01/01 03:36:03;;;;;;;70.60;42.15;;;0.80;95.90;;;;;;5075908;28;20044;-56
2021/01/01 03:38:32;;;;;;;71.15;42.78;;;0.80;96.00;;;;;;5077688;28;20121;-56
2021/01/01 03:40:58;;;;;;;65.13;40.88;;;0.80;96.00;;;;;;5081849;28;20036;-56
2021/01/01 03:43:24;;;;;;;75.55;44.20;;;0.80;96.00;;;;;;5079287;28;20493;-56
2021/01/01 03:45:50;;;;;;;63.13;40.88;;;0.80;95.90;;;;;;5077671;28;20449;-56
2021/01/01 03:48:16;;;;;;;67.47;42.65;;;0.80;95.80;;;;;;5078901;28;20059;-56
2021/01/01 03:50:43;;;;;;;64.60;41.05;;;0.80;95.80;;;;;;5081922;28;20391;-56
2021/01/01 03:53:08;;;;;;;68.20;42.65;;;0.80;95.80;;;;;;5080979;28;20028;-56
2021/01/01 03:55:34;;;;;;;65.25;44.10;;;0.80;95.80;;;;;;5087547;28;20039;-56
2021/01/01 03:58:00;;;;;;;72.50;44.30;;;0.80;95.80;;;;;;5087048;28;20044;-56
2021/01/01 04:00:26;;;;;;;74.20;44.20;;;0.80;95.80;;;;;;5080842;28;20064;-56
2021/01/01 04:02:51;;;;;;;65.28;44.47;;;0.90;95.80;;;;;;5081844;28;20032;-56
2021/01/01 04:05:17;;;;;;;72.85;46.90;;;0.90;95.80;;;;;;5081800;28;20120;-56
2021/01/01 04:07:43;;;;;;;71.82;48.78;;;0.90;95.80;;;;;;5079074;28;20044;-56
2021/01/01 04:10:09;;;;;;;71.10;50.33;;;0.90;95.80;;;;;;5083384;28;20544;-56
2021/01/01 04:12:35;;;;;;;74.25;51.45;;;0.90;95.70;;;;;;5082507;28;20056;-56
2021/01/01 04:15:00;;;;;;;75.53;52.78;;;0.90;95.70;;;;;;5083364;28;20048;-56
2021/01/01 04:17:26;;;;;;;86.30;55.67;;;0.90;95.70;;;;;;5084005;28;20051;-56
2021/01/01 04:19:52;;;;;;;76.28;52.17;;;0.90;95.70;;;;;;5078935;28;20032;-56
2021/01/01 04:22:17;;;;;;;74.97;52.95;;;0.90;95.60;;;;;;5081202;28;20089;-56
2021/01/01 04:24:43;;;;;;;74.57;51.95;;;1.00;95.60;;;;;;5080052;28;20044;-56
2021/01/01 04:27:08;;;;;;;73.18;52.20;;;0.90;95.60;;;;;;5080626;28;20371;-56
2021/01/01 04:29:34;;;;;;;75.50;53.10;;;0.90;95.60;;;;;;5079051;28;20103;-56
2021/01/01 04:32:00;;;;;;;74.88;52.25;;;1.00;95.70;;;;;;5085199;28;20406;-56
2021/01/01 04:34:25;;;;;;;76.40;52.60;;;1.00;95.60;;;;;;5079184;28;21146;-56
2021/01/01 04:36:52;;;;;;;76.65;52.15;;;1.00;95.60;;;;;;5081503;28;20097;-56
2021/01/01 04:39:17;;;;;;;75.82;53.25;;;1.00;95.60;;;;;;5083350;28;20025;-56
2021/01/01 04:41:44;;;;;;;74.00;52.90;;;1.10;95.60;;;;;;5079762;28;20115;-56
2021/01/01 04:44:10;;;;;;;79.97;53.50;;;1.10;95.60;;;;;;5076994;28;20037;-56
2021/01/01 04:46:40;;;;;;;75.82;53.63;;;1.10;95.60;;;;;;5082010;28;20082;-56
2021/01/01 04:49:06;;;;;;;72.13;50.10;;;1.10;95.50;;;;;;5080293;28;20036;-56
2021/01/01 04:51:32;;;;;;;72.82;52.22;;;1.10;95.50;;;;;;5083644;28;20154;-56
2021/01/01 04:54:01;;;;;;;76.88;53.90;;;1.10;95.50;;;;;;5077435;28;20635;-56
2021/01/01 04:56:27;;;;;;;74.95;53.63;;;1.10;95.50;;;;;;5080794;28;20402;-56
2021/01/01 04:58:53;;;;;;;68.70;51.88;;;1.20;95.50;;;;;;5083660;28;20042;-56
2021/01/01 05:01:23;;;;;;;70.38;51.65;;;1.20;95.50;;;;;;5079351;28;20367;-56
2021/01/01 05:03:48;;;;;;;70.07;52.22;;;1.30;95.50;;;;;;5078361;28;20040;-56
2021/01/01 05:06:26;;;;;;;75.30;54.22;;;1.20;95.40;;;;;;5079413;28;20089;-56
2021/01/01 05:08:51;;;;;;;71.95;53.70;;;1.30;95.50;;;;;;5079702;28;20108;-56
2021/01/01 05:11:21;;;;;;;73.32;54.28;;;1.30;95.50;;;;;;5083148;28;20131;-56
2021/01/01 05:13:57;;;;;;;75.15;53.55;;;1.30;95.40;;;;;;5080950;28;20366;-56
2021/01/01 05:16:23;;;;;;;69.45;51.72;;;1.30;95.40;;;;;;5078820;28;20092;-56
2021/01/01 05:18:49;;;;;;;75.10;54.60;;;1.30;95.30;;;;;;5081036;28;20044;-56
2021/01/01 05:21:28;;;;;;;76.50;55.38;;;1.40;95.40;;;;;;5082686;28;20036;-56
2021/01/01 05:23:57;;;;;;;76.18;54.80;;;1.40;95.30;;;;;;5081485;28;20127;-56
2021/01/01 05:26:27;;;;;;;74.40;55.65;;;1.50;95.30;;;;;;5077773;28;20088;-56
2021/01/01 05:29:25;;;;;;;74.95;56.13;;;1.50;95.30;;;;;;5079271;28;20032;-56
2021/01/01 05:31:51;;;;;;;77.95;55.75;;;1.40;95.30;;;;;;5084887;28;20034;-56
2021/01/01 05:34:20;;;;;;;70.03;54.08;;;1.50;95.30;;;;;;5085711;28;20039;-56
2021/01/01 05:36:47;;;;;;;78.82;58.45;;;1.40;95.20;;;;;;5081382;28;20108;-56
2021/01/01 05:39:22;;;;;;;80.35;58.47;;;1.40;95.20;;;;;;5081138;28;20044;-56
2021/01/01 05:41:53;;;;;;;81.13;58.65;;;1.40;95.10;;;;;;5084893;28;20042;-56
2021/01/01 05:44:26;;;;;;;78.28;58.78;;;1.40;95.10;;;;;;5080452;28;20032;-56
2021/01/01 05:46:59;;;;;;;84.38;61.78;;;1.50;95.20;;;;;;5088129;28;20116;-56
2021/01/01 05:49:32;;;;;;;92.07;61.72;;;1.40;95.10;;;;;;5084061;28;20084;-56
2021/01/01 05:52:11;;;;;;;87.10;61.75;;;1.50;95.10;;;;;;5082241;28;20039;-56
2021/01/01 05:54:39;;;;;;;93.63;65.75;;;1.50;95.20;;;;;;5080084;28;20040;-56
2021/01/01 05:57:06;;;;;;;87.40;62.20;;;1.40;95.10;;;;;;5086733;28;20039;-56
2021/01/01 05:59:52;;;;;;;91.57;65.35;;;1.40;95.10;;;;;;5079294;28;20043;-56
2021/01/01 06:02:22;;;;;;;87.53;64.53;;;1.50;95.10;;;;;;5081500;28;20471;-56
2021/01/01 06:04:50;;;;;;;101.03;68.90;;;1.50;95.10;;;;;;5082342;28;20040;-56
2021/01/01 06:07:18;;;;;;;89.50;64.60;;;1.50;95.10;;;;;;5081659;28;20044;-56
2021/01/01 06:09:45;;;;;;;99.60;70.72;;;1.50;95.10;;;;;;5078622;28;20038;-56
2021/01/01 06:12:12;;;;;;;92.10;67.15;;;1.50;95.10;;;;;;5083814;28;20036;-56
2021/01/01 06:14:45;;;;;;;98.97;69.40;;;1.50;95.10;;;;;;5083029;28;20095;-56
2021/01/01 06:17:11;;;;;;;95.47;69.63;;;1.50;95.10;;;;;;5080567;28;20071;-56
2021/01/01 06:19:50;;;;;;;100.88;72.63;;;1.50;95.10;;;;;;5079562;28;20064;-56
2021/01/01 06:22:25;;;;;;;104.13;74.18;;;1.50;95.10;;;;;;5080190;28;20051;-56
2021/01/01 06:24:55;;;;;;;106.65;72.10;;;1.50;95.10;;;;;;5080934;28;20036;-56
2021/01/01 06:27:23;;;;;;;110.30;79.30;;;1.50;95.10;;;;;;5078168;28;20172;-56
2021/01/01 06:30:02;;;;;;;109.88;77.35;;;1.50;95.10;;;;;;5082374;28;20047;-56
2021/01/01 06:32:31;;;;;;;104.75;74.30;;;1.50;95.10;;;;;;5081576;28;20044;-56
2021/01/01 06:35:14;;;;;;;108.82;78.28;;;1.50;95.10;;;;;;5078580;28;20039;-56
2021/01/01 06:37:46;;;;;;;115.95;78.15;;;1.50;95.10;;;;;;5079292;28;20052;-56
2021/01/01 06:40:21;;;;;;;108.65;77.55;;;1.70;95.20;;;;;;5080953;28;20110;-56
2021/01/01 06:43:19;;;;;;;109.60;80.15;;;1.50;95.20;;;;;;5078807;28;20032;-56
2021/01/01 06:45:46;;;;;;;111.90;78.95;;;1.60;95.20;;;;;;5047716;28;20505;-56
2021/01/01 06:48:18;;;;;;;108.15;77.13;;;1.50;95.20;;;;;;5082547;28;20486;-56
2021/01/01 06:50:48;;;;;;;113.05;78.95;;;1.50;95.20;;;;;;5078868;28;20039;-56
2021/01/01 06:53:15;;;;;;;113.40;78.10;;;1.50;95.20;;;;;;5080692;28;20032;-56
2021/01/01 06:55:46;;;;;;;118.30;81.10;;;1.60;95.20;;;;;;5078289;28;20090;-56
2021/01/01 06:58:13;;;;;;;117.07;80.50;;;1.50;95.20;;;;;;5080766;28;20059;-56
2021/01/01 07:00:59;;;;;;;118.13;79.05;;;1.60;95.20;;;;;;5082489;28;20035;-56
2021/01/01 07:03:28;;;;;;;;;;;1.50;95.20;;;;;;5083510;28;20118;-56
2021/01/01 07:06:17;;;;;;;108.47;75.15;;;1.60;95.20;;;;;;5080477;28;20504;-56
2021/01/01 07:08:42;;;;;;;105.38;73.45;;;1.50;95.20;;;;;;5078070;28;20066;-56
2021/01/01 07:11:11;;;;;;;107.95;75.47;;;1.50;95.30;;;;;;5083470;28;20039;-56
2021/01/01 07:13:53;;;;;;;117.75;78.38;;;1.50;95.30;;;;;;5076474;28;20095;-56
2021/01/01 07:16:21;;;;;;;106.85;76.72;;;1.60;95.30;;;;;;5082138;28;20138;-56
2021/01/01 07:18:47;;;;;;;119.03;79.22;;;1.50;95.30;;;;;;5079578;28;20117;-56
2021/01/01 07:21:15;;;;;;;114.32;79.25;;;1.50;95.30;;;;;;5081777;28;20036;-56
2021/01/01 07:23:41;;;;;;;121.43;79.47;;;1.50;95.20;;;;;;5073911;28;20040;-56
2021/01/01 07:26:08;;;;;;;116.45;78.40;;;1.50;95.20;;;;;;5080372;28;20143;-56
2021/01/01 07:28:34;;;;;;;118.15;82.18;;;1.50;95.20;;;;;;5075426;28;20085;-56
2021/01/01 07:30:59;;;;;;;117.90;77.32;;;1.50;95.30;;;;;;5082187;28;20040;-56
2021/01/01 07:33:26;;;;;;;112.72;78.20;;;1.50;95.30;;;;;;5079920;28;20040;-57
2021/01/01 07:35:57;;;;;;;127.03;81.60;;;1.50;95.30;;;;;;5083197;28;20115;-56
2021/01/01 07:38:24;;;;;;;115.60;76.95;;;1.50;95.30;;;;;;5079853;28;20036;-56
2021/01/01 07:40:51;;;;;;;114.50;77.05;;;1.50;95.30;;;;;;5080102;28;20045;-56
2021/01/01 07:43:17;;;;;;;114.00;75.75;;;1.50;95.30;;;;;;5081451;28;20094;-56
2021/01/01 07:45:43;;;;;;;115.72;77.85;;;1.50;95.40;;;;;;5079391;28;20044;-56
2021/01/01 07:48:09;;;;;;;113.47;77.43;;;1.50;95.40;;;;;;5083566;28;20032;-56
2021/01/01 07:50:36;;;;;;;105.53;74.97;;;1.50;95.40;;;;;;5078987;28;20124;-56
2021/01/01 07:53:03;;;;;;;115.28;76.47;;;1.50;95.40;;;;;;5078307;28;20032;-56
2021/01/01 07:55:30;;;;;;;110.13;75.07;;;1.50;95.40;;;;;;5080176;28;20097;-56
2021/01/01 07:58:12;;;;;;;120.55;78.68;;;1.50;95.40;;;;;;5077704;28;20064;-56
2021/01/01 08:00:40;;;;;;;114.65;75.13;;;1.50;95.40;;;;;;5077814;28;20136;-56
2021/01/01 08:03:07;;;;;;;103.70;70.28;;;1.50;95.50;;;;;;5079916;28;20123;-56
2021/01/01 08:05:33;;;;;;;102.60;69.80;;;1.50;95.50;;;;;;5078032;28;20028;-56
2021/01/01 08:08:25;;;;;;;104.78;70.30;;;1.50;95.50;;;;;;5083677;28;20068;-56
2021/01/01 08:10:52;;;;;;;99.22;67.55;;;1.50;95.50;;;;;;5077739;28;20379;-56
2021/01/01 08:13:20;;;;;;;101.38;65.75;;;1.60;95.50;;;;;;5075588;28;20044;-56
2021/01/01 08:15:47;;;;;;;99.45;66.18;;;1.50;95.50;;;;;;5078566;28;20071;-56
2021/01/01 08:18:14;;;;;;;92.85;62.33;;;1.60;95.50;;;;;;5080083;28;20078;-56
2021/01/01 08:20:42;;;;;;;106.50;66.82;;;1.60;95.50;;;;;;5081277;28;20120;-56
2021/01/01 08:23:10;;;;;;;94.93;63.60;;;1.60;95.60;;;;;;5076253;28;20043;-56
2021/01/01 08:25:37;;;;;;;94.38;61.75;;;1.60;95.60;;;;;;5077692;28;20037;-56
2021/01/01 08:28:05;;;;;;;112.80;67.53;;;1.70;95.70;;;;;;5077382;28;20044;-56
2021/01/01 08:30:32;;;;;;;96.13;64.53;;;1.80;95.70;;;;;;5081180;28;20032;-56
2021/01/01 08:32:59;;;;;;;96.32;65.53;;;1.80;95.80;;;;;;5077413;28;20036;-56
2021/01/01 08:35:26;;;;;;;104.25;64.50;;;1.90;95.70;;;;;;5074993;28;20527;-56
2021/01/01 08:37:52;;;;;;;91.47;61.15;;;1.90;95.70;;;;;;5080688;28;20077;-56
2021/01/01 08:40:20;;;;;;;91.97;62.28;;;2.00;95.70;;;;;;5077759;28;20108;-56
2021/01/01 08:42:54;;;;;;;90.97;60.40;;;2.00;95.70;;;;;;5079562;28;20105;-56
2021/01/01 08:45:21;;;;;;;96.15;61.45;;;2.10;95.60;;;;;;5081181;28;20047;-56
2021/01/01 08:47:49;;;;;;;87.55;60.28;;;2.10;95.60;;;;;;5078700;28;20093;-56
2021/01/01 08:50:18;;;;;;;99.55;63.05;;;2.10;95.50;;;;;;5077844;28;20467;-56
2021/01/01 08:52:45;;;;;;;93.53;60.42;;;2.10;95.60;;;;;;5081694;28;20565;-56
2021/01/01 08:55:12;;;;;;;90.55;60.08;;;2.20;95.60;;;;;;5084276;28;20111;-56
2021/01/01 08:57:38;;;;;;;89.28;60.50;;;2.20;95.60;;;;;;5084251;28;20036;-56
2021/01/01 09:00:05;;;;;;;93.00;60.47;;;2.10;95.60;;;;;;5082089;28;20394;-56
2021/01/01 09:02:33;;;;;;;87.78;58.85;;;2.20;95.60;;;;;;5081282;28;20035;-56
2021/01/01 09:05:00;;;;;;;86.38;59.30;;;2.20;95.60;;;;;;5083962;28;20037;-56
2021/01/01 09:07:26;;;;;;;86.93;56.50;;;2.20;95.60;;;;;;5078396;28;20101;-56
2021/01/01 09:09:51;;;;;;;88.57;57.47;;;2.30;95.60;;;;;;5078085;28;20032;-56
2021/01/01 09:12:22;;;;;;;91.85;58.38;;;2.30;95.70;;;;;;5081040;28;20036;-55
2021/01/01 09:14:55;;;;;;;87.22;56.78;;;2.30;95.60;;;;;;5081217;28;20093;-55
2021/01/01 09:17:27;;;;;;;82.63;54.35;;;2.40;95.70;;;;;;5083791;28;20045;-55
2021/01/01 09:20:08;;;;;;;84.10;54.85;;;2.40;95.60;;;;;;5082205;28;20032;-55
2021/01/01 09:22:36;;;;;;;85.32;55.97;;;2.40;95.60;;;;;;5084422;28;20037;-55
2021/01/01 09:25:21;;;;;;;84.75;54.38;;;2.50;95.70;;;;;;5077979;28;20402;-55
2021/01/01 09:27:48;;;;;;;72.65;50.78;;;2.50;95.70;;;;;;5081846;28;20040;-55
2021/01/01 09:30:16;;;;;;;86.25;55.58;;;2.50;95.70;;;;;;5080000;28;20090;-54
2021/01/01 09:32:43;;;;;;;87.78;55.10;;;2.50;95.70;;;;;;5083745;28;20040;-55
2021/01/01 09:35:10;;;;;;;75.40;49.30;;;2.60;95.70;;;;;;5078947;28;20051;-55
2021/01/01 09:37:35;;;;;;;68.78;47.95;;;2.60;95.70;;;;;;5073490;28;20059;-55
2021/01/01 09:40:01;;;;;;;74.03;48.17;;;2.70;95.80;;;;;;5080756;28;20040;-55
2021/01/01 09:42:26;;;;;;;69.95;48.40;;;2.80;95.80;;;;;;5078301;28;20474;-55
2021/01/01 09:44:53;;;;;;;72.75;49.00;;;2.80;95.80;;;;;;5079526;28;20036;-55
2021/01/01 09:47:18;;;;;;;70.05;45.78;;;2.90;95.80;;;;;;5081581;28;20089;-55
2021/01/01 09:49:44;;;;;;;63.80;43.65;;;2.90;95.80;;;;;;5078639;28;20036;-55
2021/01/01 09:52:09;;;;;;;59.90;42.17;;;3.00;95.90;;;;;;5083519;28;20031;-55
2021/01/01 09:54:35;;;;;;;68.43;45.75;;;3.10;95.80;;;;;;5078725;28;20044;-55
2021/01/01 09:57:01;;;;;;;63.25;43.35;;;3.20;95.90;;;;;;5079645;28;20035;-55
2021/01/01 09:59:26;;;;;;;63.90;43.38;;;3.20;95.90;;;;;;5081472;28;20037;-55
2021/01/01 10:01:52;;;;;;;59.30;39.58;;;3.30;95.90;;;;;;5082603;28;20119;-55
2021/01/01 10:04:18;;;;;;;59.83;39.85;;;3.40;95.80;;;;;;5081693;28;20525;-55
2021/01/01 10:06:49;;;;;;;56.45;38.92;;;3.40;95.70;;;;;;5080832;28;20537;-55
2021/01/01 10:09:15;;;;;;;54.85;39.15;;;3.40;95.70;;;;;;5080705;28;20040;-55
2021/01/01 10:11:40;;;;;;;59.35;38.60;;;3.50;95.70;;;;;;5078621;28;20051;-55
2021/01/01 10:14:06;;;;;;;50.63;37.17;;;3.50;95.60;;;;;;5080163;28;20055;-55
2021/01/01 10:16:39;;;;;;;52.03;36.13;;;3.50;95.60;;;;;;5082015;28;20043;-55
2021/01/01 10:19:05;;;;;;;53.97;37.42;;;3.60;95.50;;;;;;5082052;28;20116;-55
2021/01/01 10:21:30;;;;;;;51.50;37.15;;;3.60;95.50;;;;;;5081679;28;20123;-55
2021/01/01 10:23:56;;;;;;;52.72;36.05;;;3.60;95.40;;;;;;5082086;28;20200;-55
2021/01/01 10:26:21;;;;;;;53.75;36.08;;;3.60;95.40;;;;;;5080536;28;20036;-55
2021/01/01 10:28:47;;;;;;;52.78;36.50;;;3.70;95.40;;;;;;5081105;28;20780;-55
2021/01/01 10:31:13;;;;;;;50.55;37.58;;;3.70;95.50;;;;;;5079712;28;20031;-55
2021/01/01 10:33:38;;;;;;;54.17;36.33;;;3.70;95.50;;;;;;5082089;28;20067;-55
2021/01/01 10:36:05;;;;;;;49.70;36.35;;;3.80;95.50;;;;;;5081739;28;20372;-55
2021/01/01 10:38:31;;;;;;;57.10;37.17;;;3.80;95.40;;;;;;5079165;28;20440;-55
2021/01/01 10:40:57;;;;;;;47.80;34.22;;;3.90;95.50;;;;;;5080308;28;20028;-55
2021/01/01 10:43:23;;;;;;;56.10;35.28;;;3.90;95.40;;;;;;5081321;28;20980;-55
2021/01/01 10:45:49;;;;;;;48.90;32.72;;;4.00;95.50;;;;;;5080854;28;20051;-55
2021/01/01 10:48:15;;;;;;;41.17;31.65;;;4.00;95.40;;;;;;5077182;28;20043;-55
2021/01/01 10:50:41;;;;;;;44.58;32.72;;;4.00;95.40;;;;;;5081870;28;20027;-55
2021/01/01 10:53:06;;;;;;;42.92;31.33;;;4.00;95.30;;;;;;5080665;28;20040;-55
2021/01/01 10:55:33;;;;;;;41.65;30.58;;;4.10;95.30;;;;;;5082344;28;20380;-56
2021/01/01 10:57:59;;;;;;;53.40;35.05;;;4.10;95.30;;;;;;5082069;28;20039;-56
2021/01/01 11:00:25;;;;;;;44.50;31.40;;;4.20;95.40;;;;;;5081918;28;20036;-55
2021/01/01 11:02:50;;;;;;;42.55;31.45;;;4.20;95.40;;;;;;5080636;28;20046;-55
2021/01/01 11:05:16;;;;;;;41.97;30.05;;;4.30;95.30;;;;;;5081578;28;20155;-55
2021/01/01 11:07:43;;;;;;;40.25;29.00;;;4.30;95.40;;;;;;5077171;28;20487;-55
2021/01/01 11:10:09;;;;;;;41.08;30.20;;;4.30;95.30;;;;;;5079019;28;20032;-55
2021/01/01 11:12:34;;;;;;;40.75;29.88;;;4.40;95.40;;;;;;5077448;28;20035;-55
2021/01/01 11:15:28;;;;;;;38.15;27.98;;;4.40;95.40;;;;;;5082879;28;20044;-55
2021/01/01 12:21:28;;;;;;;21.73;15.93;;;5.20;94.50;;;;;;5080157;28;20039;-55
2021/01/01 12:24:23;;;;;;;19.30;15.43;;;5.20;94.50;;;;;;5083325;28;20054;-55
2021/01/01 12:26:48;;;;;;;17.00;13.55;;;5.20;94.50;;;;;;5081378;28;20495;-55
2021/01/01 12:29:18;;;;;;;15.93;12.77;;;5.20;94.50;;;;;;5080537;28;20036;-55
2021/01/01 12:31:43;;;;;;;15.63;12.10;;;5.30;94.60;;;;;;5082490;28;20661;-55
2021/01/01 12:34:09;;;;;;;14.80;11.65;;;5.30;94.60;;;;;;5083209;28;20036;-55
2021/01/01 12:36:35;;;;;;;16.92;11.70;;;5.30;94.60;;;;;;5084155;28;20047;-55
2021/01/01 12:39:01;;;;;;;12.95;10.43;;;5.40;94.60;;;;;;5080688;28;20037;-55
2021/01/01 12:41:26;;;;;;;12.07;10.35;;;5.40;94.50;;;;;;5084813;28;20044;-55
2021/01/01 12:43:52;;;;;;;14.25;9.35;;;5.50;94.50;;;;;;5079939;28;20466;-56
2021/01/01 12:46:18;;;;;;;13.43;9.50;;;5.50;94.30;;;;;;5086075;28;21816;-55
2021/01/01 12:48:44;;;;;;;10.68;8.55;;;5.60;94.20;;;;;;5085045;28;20048;-55
2021/01/01 12:51:09;;;;;;;9.38;7.55;;;5.60;94.20;;;;;;5085207;28;20165;-55
2021/01/01 12:53:35;;;;;;;11.45;8.30;;;5.60;94.20;;;;;;5082361;28;20101;-56
2021/01/01 12:56:01;;;;;;;12.27;8.13;;;5.70;94.20;;;;;;5084365;28;20039;-55
2021/01/01 12:58:26;;;;;;;12.88;8.55;;;5.70;94.00;;;;;;5082800;28;20126;-55
2021/01/01 13:00:52;;;;;;;10.88;7.68;;;5.70;93.90;;;;;;5086756;28;20393;-55
2021/01/01 13:03:18;;;;;;;11.93;9.23;;;5.70;93.90;;;;;;5077559;28;20082;-55
2021/01/01 13:05:43;;;;;;;10.60;8.45;;;5.60;93.80;;;;;;5080998;28;20118;-55
2021/01/01 13:08:09;;;;;;;11.05;7.30;;;5.60;93.90;;;;;;5083129;28;20032;-55
2021/01/01 13:10:35;;;;;;;9.20;7.05;;;5.80;94.10;;;;;;5080816;28;20044;-55
2021/01/01 13:13:01;;;;;;;7.78;6.13;;;5.80;94.40;;;;;;5082829;28;20111;-56
2021/01/01 13:15:26;;;;;;;6.97;5.70;;;5.90;93.90;;;;;;5081877;28;20555;-56
2021/01/01 13:17:52;;;;;;;10.60;6.05;;;5.90;93.50;;;;;;5083671;28;20062;-55
2021/01/01 13:20:17;;;;;;;7.57;5.20;;;5.90;93.50;;;;;;5083655;28;20862;-55
2021/01/01 13:22:43;;;;;;;6.95;4.70;;;5.90;93.60;;;;;;5080270;28;20090;-55
2021/01/01 13:25:10;;;;;;;6.20;5.00;;;6.00;93.60;;;;;;5080873;28;20477;-56
2021/01/01 13:27:36;;;;;;;5.95;4.50;;;6.00;93.60;;;;;;5082138;28;20216;-55
2021/01/01 13:30:02;;;;;;;6.32;3.97;;;6.00;93.60;;;;;;5083951;28;20110;-55
2021/01/01 13:32:28;;;;;;;5.30;3.40;;;6.00;93.60;;;;;;5082005;28;20036;-55
2021/01/01 13:34:54;;;;;;;4.47;3.50;;;6.00;93.60;;;;;;5082858;28;20046;-56
2021/01/01 13:37:19;;;;;;;4.43;3.33;;;6.00;93.40;;;;;;5082476;28;20515;-55
2021/01/01 13:39:45;;;;;;;4.68;3.15;;;6.00;93.40;;;;;;5080234;28;20036;-55
2021/01/01 13:42:12;;;;;;;6.75;2.88;;;6.00;93.30;;;;;;5082247;28;20392;-56